createdAt,value
2022-09-20T00:01:29.938Z,2.30
2022-09-20T00:03:58.332Z,2.30
2022-09-20T00:06:29.837Z,2.17
2022-09-20T00:08:57.335Z,2.60
2022-09-20T00:11:25.652Z,2.60
2022-09-20T00:13:54.842Z,2.20
2022-09-20T00:16:30.269Z,2.53
2022-09-20T00:18:58.206Z,2.10
2022-09-20T00:21:27.483Z,2.20
2022-09-20T00:23:54.849Z,2.50
2022-09-20T00:26:22.814Z,2.67
2022-09-20T00:28:50.885Z,2.67
2022-09-20T00:31:18.122Z,2.03
2022-09-20T00:34:04.662Z,2.20
2022-09-20T00:36:32.196Z,2.30
2022-09-20T00:39:00.244Z,2.17
2022-09-20T00:41:27.798Z,2.27
2022-09-20T00:43:55.388Z,2.10
2022-09-20T00:46:33.166Z,2.43
2022-09-20T00:49:04.537Z,2.17
2022-09-20T00:51:34.300Z,2.37
2022-09-20T00:54:02.388Z,2.43
2022-09-20T00:56:32.164Z,2.17
2022-09-20T00:58:59.462Z,2.20
2022-09-20T01:01:27.166Z,2.33
2022-09-20T01:03:55.476Z,2.07
2022-09-20T01:06:22.733Z,1.73
2022-09-20T01:08:51.961Z,1.80
2022-09-20T01:11:19.220Z,2.00
2022-09-20T01:13:46.468Z,1.90
2022-09-20T01:16:15.681Z,2.30
2022-09-20T01:18:43.793Z,2.03
2022-09-20T01:21:11.421Z,2.50
2022-09-20T01:23:58.889Z,2.53
2022-09-20T01:26:43.216Z,2.90
2022-09-20T01:29:19.686Z,2.60
2022-09-20T01:31:55.811Z,2.50
2022-09-20T01:34:33.276Z,2.30
2022-09-20T01:37:00.454Z,2.90
2022-09-20T01:39:45.503Z,2.60
2022-09-20T01:42:14.435Z,2.57
2022-09-20T01:45:00.930Z,2.80
2022-09-20T01:47:40.414Z,3.17
2022-09-20T01:50:13.885Z,2.63
2022-09-20T01:52:41.281Z,2.30
2022-09-20T01:55:15.457Z,2.07
2022-09-20T01:57:48.772Z,2.10
2022-09-20T02:00:16.304Z,1.90
2022-09-20T02:03:12.394Z,2.53
2022-09-20T02:05:58.820Z,2.13
2022-09-20T02:08:32.405Z,2.33
2022-09-20T02:11:12.027Z,2.67
2022-09-20T02:13:55.300Z,2.40
2022-09-20T02:16:41.182Z,2.20
2022-09-20T02:19:08.511Z,2.60
2022-09-20T02:21:44.129Z,2.67
2022-09-20T02:24:30.714Z,2.80
2022-09-20T02:27:03.902Z,2.60
2022-09-20T02:29:31.303Z,2.60
2022-09-20T02:32:01.677Z,2.33
2022-09-20T02:34:29.342Z,2.83
2022-09-20T02:36:56.641Z,2.60
2022-09-20T02:39:44.085Z,3.20
2022-09-20T02:42:34.751Z,2.70
2022-09-20T02:45:10.072Z,2.57
2022-09-20T02:47:42.300Z,2.80
2022-09-20T02:50:15.350Z,2.57
2022-09-20T02:52:51.702Z,2.43
2022-09-20T02:55:25.272Z,2.73
2022-09-20T02:58:07.716Z,2.40
2022-09-20T03:00:45.078Z,2.40
2022-09-20T03:03:18.412Z,2.20
2022-09-20T03:05:57.890Z,2.80
2022-09-20T03:08:38.054Z,2.40
2022-09-20T03:11:11.326Z,2.60
2022-09-20T03:13:53.926Z,2.30
2022-09-20T03:16:33.224Z,2.27
2022-09-20T03:19:03.524Z,2.67
2022-09-20T03:22:03.303Z,2.63
2022-09-20T03:24:36.541Z,2.60
2022-09-20T03:27:19.119Z,2.57
2022-09-20T03:29:59.471Z,2.70
2022-09-20T03:32:37.485Z,2.27
2022-09-20T03:35:20.171Z,2.67
2022-09-20T03:38:07.716Z,2.67
2022-09-20T03:40:54.029Z,2.63
2022-09-20T03:43:42.438Z,2.30
2022-09-20T03:46:28.839Z,2.30
2022-09-20T03:49:14.768Z,2.43
2022-09-20T03:51:48.234Z,2.50
2022-09-20T03:54:15.438Z,2.60
2022-09-20T03:56:55.240Z,2.40
2022-09-20T03:59:25.763Z,2.63
2022-09-20T04:01:53.079Z,2.10
2022-09-20T04:04:37.166Z,2.90
2022-09-20T04:07:04.495Z,2.77
2022-09-20T04:09:51.119Z,2.60
2022-09-20T04:12:36.713Z,2.50
2022-09-20T04:15:27.224Z,2.77
2022-09-20T04:18:13.636Z,2.87
2022-09-20T04:20:40.875Z,3.10
2022-09-20T04:23:23.495Z,2.83
2022-09-20T04:25:51.957Z,3.37
2022-09-20T04:28:31.909Z,4.03
2022-09-20T04:31:04.633Z,3.20
2022-09-20T04:33:35.664Z,3.30
2022-09-20T04:36:29.029Z,3.30
2022-09-20T04:39:15.037Z,3.30
2022-09-20T04:42:01.044Z,2.47
2022-09-20T04:44:46.022Z,2.57
2022-09-20T04:47:32.143Z,2.37
2022-09-20T04:50:02.422Z,2.80
2022-09-20T04:52:48.286Z,2.57
2022-09-20T04:55:30.862Z,2.63
2022-09-20T04:58:04.819Z,2.60
2022-09-20T05:00:55.508Z,2.70
2022-09-20T05:03:49.867Z,2.47
2022-09-20T05:06:32.469Z,3.50
2022-09-20T05:09:13.698Z,3.47
2022-09-20T05:11:53.606Z,3.80
2022-09-20T05:14:36.232Z,2.73
2022-09-20T05:17:22.130Z,3.30
2022-09-20T05:19:55.787Z,3.20
2022-09-20T05:22:26.101Z,3.00
2022-09-20T05:25:12.205Z,2.97
2022-09-20T05:27:47.229Z,2.67
2022-09-20T05:30:14.404Z,2.70
2022-09-20T05:33:00.340Z,2.83
2022-09-20T05:35:32.231Z,2.43
2022-09-20T05:38:02.555Z,2.53
2022-09-20T05:41:00.322Z,2.47
2022-09-20T05:43:30.494Z,2.20
2022-09-20T05:46:03.762Z,2.23
2022-09-20T05:48:40.286Z,2.70
2022-09-20T05:51:13.541Z,2.77
2022-09-20T05:53:40.774Z,2.57
2022-09-20T05:56:23.606Z,2.03
2022-09-20T05:58:50.800Z,1.83
2022-09-20T06:01:41.397Z,2.30
2022-09-20T06:04:24.335Z,2.20
2022-09-20T06:07:10.332Z,1.87
2022-09-20T06:10:10.158Z,2.60
2022-09-20T06:12:44.059Z,2.90
2022-09-20T06:15:16.057Z,2.93
2022-09-20T06:17:56.354Z,2.80
2022-09-20T06:20:23.532Z,3.00
2022-09-20T06:22:52.658Z,2.63
2022-09-20T06:25:23.712Z,2.20
2022-09-20T06:27:56.195Z,2.60
2022-09-20T06:30:35.406Z,2.47
2022-09-20T06:33:08.710Z,2.20
2022-09-20T06:35:42.272Z,2.47
2022-09-20T06:38:39.164Z,2.60
2022-09-20T06:41:25.025Z,3.17
2022-09-20T06:43:52.313Z,3.00
2022-09-20T06:46:19.801Z,3.13
2022-09-20T06:48:47.359Z,3.53
2022-09-20T06:51:14.591Z,4.10
2022-09-20T06:53:42.808Z,3.80
2022-09-20T06:56:14.543Z,3.83
2022-09-20T06:58:41.730Z,4.00
2022-09-20T07:01:13.852Z,3.70
2022-09-20T07:03:41.748Z,3.47
2022-09-20T07:06:09.441Z,3.57
2022-09-20T07:08:36.885Z,3.50
2022-09-20T07:11:05.194Z,4.13
2022-09-20T07:13:32.857Z,3.87
2022-09-20T07:16:07.139Z,3.40
2022-09-20T07:18:34.925Z,3.70
2022-09-20T07:21:02.416Z,3.37
2022-09-20T07:23:30.208Z,3.90
2022-09-20T07:26:01.143Z,3.80
2022-09-20T07:28:29.416Z,5.00
2022-09-20T07:30:56.629Z,5.20
2022-09-20T07:33:25.038Z,6.10
2022-09-20T07:35:54.563Z,6.43
2022-09-20T07:38:22.808Z,7.50
2022-09-20T07:40:57.684Z,8.30
2022-09-20T07:43:25.456Z,8.23
2022-09-20T07:45:56.148Z,8.57
2022-09-20T07:48:24.923Z,9.83
2022-09-20T07:50:56.703Z,10.10
2022-09-20T07:53:24.170Z,11.07
2022-09-20T07:56:01.616Z,10.87
2022-09-20T07:58:29.624Z,10.73
2022-09-20T08:00:57.737Z,11.33
2022-09-20T08:03:26.329Z,10.30
2022-09-20T08:05:59.486Z,11.83
2022-09-20T08:08:26.731Z,10.63
2022-09-20T08:10:55.808Z,9.07
2022-09-20T08:16:11.168Z,8.50
2022-09-20T08:18:38.871Z,7.67
2022-09-20T08:21:07.068Z,7.87
2022-09-20T08:23:38.771Z,7.20
2022-09-20T08:26:07.870Z,6.90
2022-09-20T08:28:35.526Z,7.03
2022-09-20T08:31:06.855Z,7.33
2022-09-20T08:33:36.518Z,7.40
2022-09-20T08:36:04.198Z,7.20
2022-09-20T08:41:32.126Z,7.93
2022-09-20T08:44:01.222Z,7.10
2022-09-20T08:46:30.304Z,6.17
2022-09-20T08:48:58.088Z,6.80
2022-09-20T08:51:30.458Z,6.33
2022-09-20T08:53:58.733Z,6.63
2022-09-20T08:56:33.317Z,6.13
2022-09-20T08:59:01.138Z,6.13
2022-09-20T09:01:31.646Z,6.07
2022-09-20T09:04:03.142Z,5.97
2022-09-20T09:06:30.729Z,4.77
2022-09-20T09:08:58.958Z,5.63
2022-09-20T09:11:26.655Z,4.60
2022-09-20T09:14:31.058Z,3.60
2022-09-20T09:16:58.819Z,3.30
2022-09-20T09:19:33.968Z,3.13
2022-09-20T09:22:03.284Z,2.60
2022-09-20T09:24:34.274Z,2.90
2022-09-20T09:27:19.157Z,2.97
2022-09-20T09:29:54.542Z,2.43
2022-09-20T09:32:23.915Z,2.93
2022-09-20T09:34:51.222Z,2.70
2022-09-20T09:37:29.002Z,2.50
2022-09-20T09:40:19.246Z,3.07
2022-09-20T09:42:54.359Z,2.70
2022-09-20T09:45:26.923Z,2.27
2022-09-20T09:47:54.745Z,2.23
2022-09-20T09:50:27.397Z,2.60
2022-09-20T09:53:10.850Z,2.63
2022-09-20T09:55:44.563Z,2.10
2022-09-20T09:58:32.112Z,2.47
2022-09-20T10:01:01.413Z,2.50
2022-09-20T10:03:31.856Z,2.40
2022-09-20T10:06:08.773Z,2.10
2022-09-20T10:08:54.562Z,2.30
2022-09-20T10:11:24.884Z,2.20
2022-09-20T10:14:10.876Z,2.20
2022-09-20T10:16:47.381Z,1.40
2022-09-20T10:19:24.897Z,1.90
2022-09-20T10:21:52.398Z,1.83
2022-09-20T10:24:38.290Z,1.70
2022-09-20T10:27:11.772Z,1.83
2022-09-20T10:29:39.277Z,1.70
2022-09-20T10:32:19.048Z,1.77
2022-09-20T10:34:58.748Z,1.93
2022-09-20T10:37:53.045Z,2.53
2022-09-20T10:41:10.946Z,1.50
2022-09-20T10:44:02.856Z,1.50
2022-09-20T10:46:33.133Z,1.63
2022-09-20T10:49:20.702Z,1.40
2022-09-20T10:51:48.181Z,1.20
2022-09-20T10:54:34.546Z,1.30
2022-09-20T10:57:21.992Z,1.80
2022-09-20T11:00:04.984Z,1.60
2022-09-20T11:02:38.350Z,1.57
2022-09-20T11:05:21.075Z,1.70
2022-09-20T11:08:00.830Z,1.60
2022-09-20T11:10:39.886Z,1.60
2022-09-20T11:13:14.153Z,1.50
2022-09-20T11:16:10.953Z,1.90
2022-09-20T11:18:40.939Z,1.67
2022-09-20T11:21:11.448Z,1.50
2022-09-20T11:23:45.430Z,1.47
2022-09-20T11:26:17.217Z,1.70
2022-09-20T11:28:46.779Z,2.07
2022-09-20T11:31:29.437Z,2.07
2022-09-20T11:34:09.431Z,2.07
2022-09-20T11:36:39.485Z,1.60
2022-09-20T11:39:13.769Z,1.90
2022-09-20T11:41:41.439Z,1.43
2022-09-20T11:44:12.608Z,1.60
2022-09-20T11:46:58.762Z,1.50
2022-09-20T11:49:35.083Z,1.53
2022-09-20T11:52:05.506Z,1.60
2022-09-20T11:54:54.728Z,1.77
2022-09-20T11:57:22.762Z,1.33
2022-09-20T11:59:53.331Z,1.70
2022-09-20T12:02:33.654Z,2.00
2022-09-20T12:05:02.128Z,1.57
2022-09-20T12:07:29.624Z,1.60
2022-09-20T12:10:01.546Z,1.40
2022-09-20T12:12:48.014Z,1.50
2022-09-20T12:15:27.668Z,1.70
2022-09-20T12:17:58.045Z,1.37
2022-09-20T12:20:34.787Z,1.47
2022-09-20T12:23:32.063Z,1.50
2022-09-20T12:26:00.910Z,1.45
2022-09-20T12:28:34.442Z,1.30
2022-09-20T12:31:26.283Z,1.50
2022-09-20T12:34:02.906Z,1.30
2022-09-20T12:36:31.439Z,1.30
2022-09-20T12:39:00.943Z,1.58
2022-09-20T12:41:29.169Z,1.40
2022-09-20T12:44:01.958Z,1.60
2022-09-20T12:46:32.452Z,1.38
2022-09-20T12:49:38.686Z,1.38
2022-09-20T12:52:24.624Z,1.73
2022-09-20T12:54:53.458Z,1.67
2022-09-20T12:57:32.447Z,1.40
2022-09-20T13:00:02.092Z,1.58
2022-09-20T13:02:42.304Z,1.90
2022-09-20T13:05:32.405Z,1.50
2022-09-20T13:08:18.570Z,1.40
2022-09-20T13:11:17.280Z,1.55
2022-09-20T13:13:50.339Z,1.50
2022-09-20T13:16:37.900Z,1.60
2022-09-20T13:19:07.923Z,1.50
2022-09-20T13:21:37.494Z,1.48
2022-09-20T13:24:05.407Z,1.60
2022-09-20T13:26:42.814Z,1.65
2022-09-20T13:29:11.819Z,1.38
2022-09-20T13:31:39.161Z,1.40
2022-09-20T13:34:19.317Z,1.60
2022-09-20T13:36:46.711Z,1.60
2022-09-20T13:39:31.913Z,1.40
2022-09-20T13:42:07.031Z,1.60
2022-09-20T13:44:35.015Z,1.77
2022-09-20T13:47:02.479Z,1.60
2022-09-20T13:49:32.113Z,1.85
2022-09-20T13:51:59.514Z,1.52
2022-09-20T13:54:31.248Z,1.50
2022-09-20T13:57:03.287Z,1.60
2022-09-20T13:59:34.005Z,1.40
2022-09-20T14:02:01.798Z,1.52
2022-09-20T14:04:30.565Z,1.50
2022-09-20T14:06:59.653Z,1.42
2022-09-20T14:09:38.768Z,1.48
2022-09-20T14:12:06.698Z,1.60
2022-09-20T14:14:34.910Z,1.55
2022-09-20T14:17:06.177Z,1.33
2022-09-20T14:19:40.904Z,1.50
2022-09-20T14:22:09.788Z,1.30
2022-09-20T14:24:38.186Z,1.42
2022-09-20T14:27:15.458Z,1.45
2022-09-20T14:29:44.121Z,1.52
2022-09-20T14:32:25.494Z,1.58
2022-09-20T14:35:01.545Z,1.48
2022-09-20T14:37:34.402Z,3.63
2022-09-20T14:40:03.322Z,1.35
2022-09-20T14:42:34.863Z,1.30
2022-09-20T14:45:03.346Z,1.48
2022-09-20T14:47:40.595Z,1.60
2022-09-20T14:50:26.570Z,1.58
2022-09-20T14:53:21.626Z,1.30
2022-09-20T14:55:56.678Z,1.50
2022-09-20T14:58:26.747Z,1.48
2022-09-20T15:01:03.196Z,1.58
2022-09-20T15:03:35.164Z,1.60
2022-09-20T15:06:02.405Z,1.70
2022-09-20T15:08:29.664Z,1.65
2022-09-20T15:10:57.027Z,1.60
2022-09-20T15:13:24.501Z,1.50
2022-09-20T15:15:53.733Z,1.48
2022-09-20T15:18:26.436Z,1.30
2022-09-20T15:20:54.493Z,1.40
2022-09-20T15:23:21.883Z,1.67
2022-09-20T15:25:52.995Z,1.80
2022-09-20T15:28:21.013Z,1.60
2022-09-20T15:30:50.070Z,1.43
2022-09-20T15:33:17.903Z,1.63
2022-09-20T15:35:45.763Z,1.70
2022-09-20T15:38:13.977Z,1.70
2022-09-20T15:40:41.741Z,1.77
2022-09-20T15:43:12.272Z,1.57
2022-09-20T15:45:56.824Z,1.80
2022-09-20T15:48:25.614Z,1.70
2022-09-20T15:51:01.959Z,1.80
2022-09-20T15:53:31.794Z,1.80
2022-09-20T15:56:02.640Z,1.70
2022-09-20T15:58:36.322Z,1.60
2022-09-20T16:01:08.216Z,1.93
2022-09-20T16:03:36.114Z,1.60
2022-09-20T16:06:05.175Z,1.43
2022-09-20T16:08:36.189Z,1.80
2022-09-20T16:11:04.120Z,1.67
2022-09-20T16:13:31.457Z,1.53
2022-09-20T16:15:59.879Z,1.70
2022-09-20T16:18:46.522Z,1.63
2022-09-20T16:21:16.140Z,1.40
2022-09-20T16:23:47.561Z,1.60
2022-09-20T16:26:14.863Z,1.40
2022-09-20T16:28:47.084Z,1.70
2022-09-20T16:31:35.081Z,2.70
2022-09-20T16:34:04.363Z,2.63
2022-09-20T16:36:32.430Z,2.30
2022-09-20T16:38:59.985Z,1.50
2022-09-20T16:41:28.544Z,1.73
2022-09-20T16:43:56.073Z,1.70
2022-09-20T16:46:27.271Z,2.15
2022-09-20T16:48:55.498Z,1.40
2022-09-20T16:51:25.016Z,1.50
2022-09-20T16:53:55.746Z,2.13
2022-09-20T16:56:24.290Z,1.70
2022-09-20T16:58:51.815Z,1.80
2022-09-20T17:01:19.655Z,1.97
2022-09-20T17:03:47.679Z,1.60
2022-09-20T17:06:16.107Z,2.03
2022-09-20T17:08:46.395Z,1.70
2022-09-20T17:11:15.075Z,1.80
2022-09-20T17:13:43.516Z,2.43
2022-09-20T17:16:11.029Z,1.90
2022-09-20T17:18:44.800Z,1.90
2022-09-20T17:21:16.510Z,1.73
2022-09-20T17:23:50.096Z,2.00
2022-09-20T17:26:23.699Z,2.40
2022-09-20T17:28:51.765Z,2.30
2022-09-20T17:31:21.165Z,2.13
2022-09-20T17:33:48.503Z,2.27
2022-09-20T17:36:18.851Z,2.10
2022-09-20T17:38:47.243Z,2.20
2022-09-20T17:41:16.024Z,2.60
2022-09-20T17:43:43.801Z,2.47
2022-09-20T17:46:15.588Z,2.40
2022-09-20T17:48:48.907Z,2.27
2022-09-20T17:51:17.263Z,2.00
2022-09-20T17:53:44.812Z,2.60
2022-09-20T17:56:13.222Z,2.57
2022-09-20T17:58:40.831Z,2.50
2022-09-20T18:01:12.552Z,2.43
2022-09-20T18:03:40.914Z,2.40
2022-09-20T18:06:21.813Z,1.93
2022-09-20T18:08:53.518Z,2.27
2022-09-20T18:11:22.158Z,2.57
2022-09-20T18:13:49.883Z,2.50
2022-09-20T18:16:18.364Z,2.80
2022-09-20T18:18:46.779Z,2.60
2022-09-20T18:21:21.594Z,2.00
2022-09-20T18:23:49.505Z,1.97
2022-09-20T18:26:37.117Z,1.97
2022-09-20T18:29:12.378Z,2.10
2022-09-20T18:31:50.218Z,1.90
2022-09-20T18:34:18.925Z,2.37
2022-09-20T18:36:48.445Z,2.87
2022-09-20T18:39:15.765Z,3.67
2022-09-20T18:41:44.805Z,3.70
2022-09-20T18:44:14.588Z,3.10
2022-09-20T18:46:42.090Z,2.80
2022-09-20T18:49:10.285Z,2.50
2022-09-20T18:51:40.514Z,3.47
2022-09-20T18:54:11.628Z,4.87
2022-09-20T18:56:39.899Z,9.30
2022-09-20T18:59:08.286Z,9.27
2022-09-20T19:01:35.939Z,5.67
2022-09-20T19:04:03.259Z,4.40
2022-09-20T19:06:39.461Z,3.53
2022-09-20T19:09:09.176Z,3.27
2022-09-20T19:11:51.060Z,3.53
2022-09-20T19:14:45.655Z,5.23
2022-09-20T19:17:16.455Z,4.80
2022-09-20T19:20:03.777Z,3.50
2022-09-20T19:22:49.799Z,4.00
2022-09-20T19:25:25.288Z,3.40
2022-09-20T19:27:53.555Z,3.23
2022-09-20T19:30:21.081Z,3.03
2022-09-20T19:32:48.558Z,7.57
2022-09-20T19:35:21.072Z,6.87
2022-09-20T19:37:48.292Z,4.47
2022-09-20T19:40:15.549Z,3.07
2022-09-20T19:43:03.255Z,3.10
2022-09-20T19:45:55.699Z,2.87
2022-09-20T19:48:26.068Z,3.77
2022-09-20T19:50:54.552Z,3.50
2022-09-20T19:53:28.134Z,3.27
2022-09-20T19:56:02.079Z,3.00
2022-09-20T19:58:29.447Z,2.67
2022-09-20T20:00:58.310Z,2.60
2022-09-20T20:03:27.492Z,2.50
2022-09-20T20:06:07.896Z,2.70
2022-09-20T20:08:55.986Z,2.50
2022-09-20T20:11:36.559Z,2.37
2022-09-20T20:14:27.476Z,2.93
2022-09-20T20:17:03.634Z,3.33
2022-09-20T20:19:36.241Z,2.70
2022-09-20T20:22:03.496Z,2.67
2022-09-20T20:24:33.770Z,2.80
2022-09-20T20:27:01.167Z,2.50
2022-09-20T20:29:28.360Z,3.40
2022-09-20T20:31:55.674Z,2.63
2022-09-20T20:34:23.108Z,3.17
2022-09-20T20:36:50.525Z,4.10
2022-09-20T20:39:17.830Z,4.77
2022-09-20T20:41:52.507Z,3.40
2022-09-20T20:44:21.340Z,3.50
2022-09-20T20:46:49.023Z,3.30
2022-09-20T20:49:17.571Z,2.80
2022-09-20T20:51:44.906Z,2.83
2022-09-20T20:54:12.242Z,2.83
2022-09-20T20:56:39.638Z,2.70
2022-09-20T20:59:06.867Z,2.47
2022-09-20T21:01:35.385Z,2.77
2022-09-20T21:04:03.555Z,3.47
2022-09-20T21:06:32.446Z,3.07
2022-09-20T21:09:00.493Z,3.00
2022-09-20T21:11:29.575Z,2.67
2022-09-20T21:13:57.671Z,2.50
2022-09-20T21:16:26.597Z,2.77
2022-09-20T21:18:53.895Z,2.87
2022-09-20T21:21:25.874Z,2.90
2022-09-20T21:24:01.294Z,2.90
2022-09-20T21:26:31.911Z,3.00
2022-09-20T21:28:59.887Z,2.90
2022-09-20T21:31:28.354Z,2.97
2022-09-20T21:33:55.968Z,3.07
2022-09-20T21:36:24.483Z,3.30
2022-09-20T21:38:52.040Z,3.30
2022-09-20T21:41:26.460Z,3.20
2022-09-20T21:43:55.413Z,2.50
2022-09-20T21:46:29.735Z,2.57
2022-09-20T21:49:00.893Z,2.80
2022-09-20T21:51:30.139Z,3.30
2022-09-20T21:53:58.207Z,3.27
2022-09-20T21:56:27.717Z,3.30
2022-09-20T21:58:55.259Z,3.20
2022-09-20T22:01:23.622Z,3.13
2022-09-20T22:04:00.957Z,3.03
2022-09-20T22:06:32.815Z,3.10
2022-09-20T22:09:06.325Z,3.40
2022-09-20T22:11:36.119Z,3.83
2022-09-20T22:14:03.402Z,3.63
2022-09-20T22:16:31.918Z,3.70
2022-09-20T22:18:59.949Z,4.20
2022-09-20T22:21:27.270Z,4.17
2022-09-20T22:23:57.599Z,3.47
2022-09-20T22:26:25.782Z,4.60
2022-09-20T22:28:53.330Z,4.27
2022-09-20T22:31:24.667Z,5.70
2022-09-20T22:33:53.266Z,4.90
2022-09-20T22:36:22.126Z,4.90
2022-09-20T22:38:49.483Z,4.57
2022-09-20T22:41:17.802Z,4.10
2022-09-20T22:43:45.445Z,3.77
2022-09-20T22:46:16.903Z,4.20
2022-09-20T22:48:44.530Z,3.90
2022-09-20T22:51:11.805Z,4.33
2022-09-20T22:53:39.567Z,3.50
2022-09-20T22:56:06.993Z,3.90
2022-09-20T22:58:35.494Z,3.77
2022-09-20T23:01:05.828Z,4.00
2022-09-20T23:03:33.176Z,3.67
2022-09-20T23:06:00.751Z,3.80
2022-09-20T23:08:28.024Z,3.67
2022-09-20T23:11:02.357Z,3.60
2022-09-20T23:13:30.005Z,3.80
2022-09-20T23:15:57.498Z,3.10
2022-09-20T23:18:25.218Z,3.87
2022-09-20T23:20:59.340Z,3.43
2022-09-20T23:23:26.591Z,3.37
2022-09-20T23:25:55.219Z,3.03
2022-09-20T23:28:23.292Z,3.33
2022-09-20T23:30:50.580Z,3.07
2022-09-20T23:33:17.797Z,4.10
2022-09-20T23:35:45.927Z,5.53
2022-09-20T23:38:14.494Z,4.33
2022-09-20T23:40:41.739Z,4.60
2022-09-20T23:43:09.160Z,4.00
2022-09-20T23:45:36.424Z,4.07
2022-09-20T23:48:03.698Z,4.10
2022-09-20T23:50:30.881Z,3.90
2022-09-20T23:52:58.233Z,4.10
2022-09-20T23:55:25.644Z,3.53
2022-09-20T23:57:59.788Z,4.20
